createdAt,value
2022-08-05T00:00:35.345Z,99833.97
2022-08-05T00:02:52.140Z,99825.16
2022-08-05T00:04:55.798Z,99824.59
2022-08-05T00:06:58.396Z,99827.31
2022-08-05T00:09:01.922Z,99824.94
2022-08-05T00:11:20.652Z,99833.53
2022-08-05T00:13:38.223Z,99818.44
2022-08-05T00:15:57.958Z,99829.38
2022-08-05T00:18:02.502Z,99832.09
2022-08-05T00:20:05.499Z,99815.50
2022-08-05T00:22:11.235Z,99824.97
2022-08-05T00:24:15.998Z,99819.03
2022-08-05T00:26:18.520Z,99815.81
2022-08-05T00:28:21.178Z,99819.75
2022-08-05T00:30:32.245Z,99815.03
2022-08-05T00:32:34.802Z,99818.91
2022-08-05T00:34:54.216Z,99811.84
2022-08-05T00:37:10.727Z,99816.44
2022-08-05T00:39:15.712Z,99808.44
2022-08-05T00:41:51.538Z,99813.72
2022-08-05T00:43:54.457Z,99809.84
2022-08-05T00:45:56.795Z,99805.63
2022-08-05T00:48:05.623Z,99804.25
2022-08-05T00:50:09.807Z,99811.03
2022-08-05T00:52:12.031Z,99801.91
2022-08-05T00:54:14.486Z,99805.50
2022-08-05T00:56:22.889Z,99799.41
2022-08-05T00:58:27.259Z,99799.25
2022-08-05T01:00:31.456Z,99802.47
2022-08-05T01:02:33.535Z,99781.31
2022-08-05T01:04:36.671Z,99793.00
2022-08-05T01:06:47.889Z,99786.59
2022-08-05T01:08:51.173Z,99792.50
2022-08-05T01:11:13.649Z,99788.09
2022-08-05T01:13:27.378Z,99789.63
2022-08-05T01:15:57.158Z,99780.97
2022-08-05T01:18:25.594Z,99778.59
2022-08-05T01:21:00.628Z,99779.59
2022-08-05T01:23:36.918Z,99769.28
2022-08-05T01:26:13.254Z,99779.78
2022-08-05T01:28:18.324Z,99770.81
2022-08-05T01:30:34.707Z,99749.47
2022-08-05T01:32:43.968Z,99761.47
2022-08-05T01:35:10.675Z,99773.66
2022-08-05T01:37:25.229Z,99758.44
2022-08-05T01:39:45.711Z,99766.56
2022-08-05T01:41:50.747Z,99747.25
2022-08-05T01:43:57.134Z,99749.63
2022-08-05T01:46:07.297Z,99749.94
2022-08-05T01:48:20.020Z,99744.88
2022-08-05T01:50:39.267Z,99744.88
2022-08-05T01:52:49.996Z,99741.81
2022-08-05T01:54:58.036Z,99751.97
2022-08-05T01:58:13.083Z,99742.84
2022-08-05T01:59:31.087Z,99753.69
2022-08-05T02:01:40.297Z,99748.59
2022-08-05T02:03:46.778Z,99742.72
2022-08-05T02:05:49.894Z,99745.56
2022-08-05T02:08:02.131Z,99735.94
2022-08-05T02:10:07.968Z,99745.06
2022-08-05T02:12:39.351Z,99745.91
2022-08-05T02:14:53.811Z,99746.94
2022-08-05T02:17:07.992Z,99739.13
2022-08-05T02:19:34.223Z,99739.97
2022-08-05T02:21:46.813Z,99733.38
2022-08-05T02:23:59.498Z,99741.53
2022-08-05T02:26:07.329Z,99732.72
2022-08-05T02:28:14.927Z,99736.78
2022-08-05T02:30:17.622Z,99720.84
2022-08-05T02:32:29.202Z,99723.72
2022-08-05T02:34:35.322Z,99719.13
2022-08-05T02:36:44.090Z,99714.75
2022-08-05T02:38:53.636Z,99721.16
2022-08-05T02:40:58.036Z,99720.81
2022-08-05T02:43:01.348Z,99715.22
2022-08-05T02:45:05.896Z,99705.53
2022-08-05T02:47:11.234Z,99714.69
2022-08-05T02:49:15.887Z,99709.44
2022-08-05T02:51:19.297Z,99717.03
2022-08-05T02:53:35.882Z,99707.53
2022-08-05T02:55:53.958Z,99716.34
2022-08-05T02:58:11.772Z,99715.66
2022-08-05T03:00:15.614Z,99720.41
2022-08-05T03:02:24.499Z,99705.50
2022-08-05T03:04:30.988Z,99704.97
2022-08-05T03:06:56.735Z,99709.22
2022-08-05T03:08:57.161Z,99712.94
2022-08-05T03:11:56.890Z,99705.81
2022-08-05T03:13:27.770Z,99710.56
2022-08-05T03:15:49.751Z,99706.88
2022-08-05T03:17:55.528Z,99704.84
2022-08-05T03:19:59.611Z,99687.06
2022-08-05T03:22:05.157Z,99713.31
2022-08-05T03:24:29.447Z,99701.63
2022-08-05T03:26:33.017Z,99707.38
2022-08-05T03:28:35.356Z,99701.28
2022-08-05T03:30:38.281Z,99706.19
2022-08-05T03:32:43.964Z,99701.75
2022-08-05T03:34:50.461Z,99699.69
2022-08-05T03:36:53.450Z,99706.81
2022-08-05T03:38:58.183Z,99700.72
2022-08-05T03:41:00.931Z,99706.97
2022-08-05T03:43:58.376Z,99704.63
2022-08-05T03:45:57.754Z,99687.50
2022-08-05T03:47:57.032Z,99694.97
2022-08-05T03:50:00.663Z,99699.22
2022-08-05T03:52:38.008Z,99696.00
2022-08-05T03:55:53.615Z,99702.25
2022-08-05T03:57:00.024Z,99693.63
2022-08-05T03:59:10.055Z,99696.72
2022-08-05T04:01:14.895Z,99717.53
2022-08-05T04:03:28.324Z,99709.41
2022-08-05T04:05:34.780Z,99700.63
2022-08-05T04:07:57.510Z,99710.84
2022-08-05T04:10:03.012Z,99707.09
2022-08-05T04:12:23.449Z,99704.25
2022-08-05T04:14:29.936Z,99701.03
2022-08-05T04:16:34.597Z,99699.16
2022-08-05T04:18:40.661Z,99701.91
2022-08-05T04:20:43.809Z,99703.56
2022-08-05T04:22:49.291Z,99691.69
2022-08-05T04:24:53.143Z,99686.09
2022-08-05T04:26:55.821Z,99680.88
2022-08-05T04:29:07.427Z,99694.75
2022-08-05T04:31:10.641Z,99683.59
2022-08-05T04:33:15.822Z,99687.38
2022-08-05T04:35:23.776Z,99688.13
2022-08-05T04:38:02.513Z,99681.19
2022-08-05T04:39:52.760Z,99691.09
2022-08-05T04:41:55.533Z,99688.72
2022-08-05T04:43:58.306Z,99692.25
2022-08-05T04:46:02.286Z,99688.34
2022-08-05T04:48:16.331Z,99681.94
2022-08-05T04:50:37.413Z,99682.94
2022-08-05T04:52:44.275Z,99679.38
2022-08-05T04:54:47.150Z,99680.28
2022-08-05T04:56:57.493Z,99682.97
2022-08-05T04:59:22.192Z,99684.59
2022-08-05T05:02:06.090Z,99686.69
2022-08-05T05:03:49.210Z,99688.47
2022-08-05T05:06:39.187Z,99693.31
2022-08-05T05:08:30.191Z,99691.97
2022-08-05T05:10:55.928Z,99691.72
2022-08-05T05:12:59.537Z,99691.81
2022-08-05T05:15:10.641Z,99683.09
2022-08-05T05:17:13.489Z,99685.09
2022-08-05T05:19:19.317Z,99686.84
2022-08-05T05:21:27.091Z,99697.66
2022-08-05T05:24:01.630Z,99684.81
2022-08-05T05:26:07.846Z,99699.06
2022-08-05T05:28:17.408Z,99684.44
2022-08-05T05:30:29.063Z,99690.47
2022-08-05T05:32:33.991Z,99688.63
2022-08-05T05:34:37.814Z,99694.75
2022-08-05T05:36:40.302Z,99689.41
2022-08-05T05:38:45.468Z,99689.13
2022-08-05T05:40:51.868Z,99692.91
2022-08-05T05:42:54.721Z,99683.44
2022-08-05T05:44:59.840Z,99693.25
2022-08-05T05:47:22.208Z,99679.38
2022-08-05T05:49:34.921Z,99677.94
2022-08-05T05:51:49.695Z,99687.25
2022-08-05T05:54:02.536Z,99692.09
2022-08-05T05:56:13.368Z,99685.78
2022-08-05T06:00:54.520Z,99695.31
2022-08-05T06:02:56.567Z,99687.47
2022-08-05T06:05:31.944Z,99691.41
2022-08-05T06:08:07.240Z,99696.13
2022-08-05T06:10:12.431Z,99694.16
2022-08-05T06:12:21.556Z,99691.47
2022-08-05T06:14:28.971Z,99696.16
2022-08-05T06:16:37.133Z,99700.78
2022-08-05T06:20:57.376Z,99698.66
2022-08-05T06:23:02.113Z,99701.50
2022-08-05T06:25:25.118Z,99690.00
2022-08-05T06:28:10.718Z,99691.84
2022-08-05T06:30:20.129Z,99697.19
2022-08-05T06:32:28.708Z,99698.59
2022-08-05T06:34:36.505Z,99694.16
2022-08-05T06:36:57.187Z,99690.19
2022-08-05T06:39:06.899Z,99685.44
2022-08-05T06:41:12.648Z,99686.78
2022-08-05T06:43:51.458Z,99677.97
2022-08-05T06:45:44.769Z,99687.69
2022-08-05T06:48:36.760Z,99676.50
2022-08-05T06:50:29.350Z,99685.59
2022-08-05T06:52:37.258Z,99693.06
2022-08-05T06:54:42.204Z,99682.13
2022-08-05T06:56:54.813Z,99679.31
2022-08-05T06:59:12.696Z,99680.94
2022-08-05T07:03:52.065Z,99668.13
2022-08-05T07:05:55.296Z,99673.66
2022-08-05T07:08:03.584Z,99673.56
2022-08-05T07:10:14.889Z,99675.69
2022-08-05T07:12:20.016Z,99667.41
2022-08-05T07:14:34.444Z,99664.75
2022-08-05T07:17:56.342Z,99653.75
2022-08-05T07:18:59.383Z,99666.06
2022-08-05T07:21:06.746Z,99657.81
2022-08-05T07:23:26.301Z,99673.38
2022-08-05T07:25:55.273Z,99673.03
2022-08-05T07:28:02.740Z,99671.50
2022-08-05T07:30:28.171Z,99668.47
2022-08-05T07:32:40.764Z,99666.00
2022-08-05T07:34:48.480Z,99674.94
2022-08-05T07:37:01.374Z,99671.59
2022-08-05T07:39:24.831Z,99675.78
2022-08-05T07:42:12.940Z,99670.31
2022-08-05T07:44:14.359Z,99663.09
2022-08-05T07:46:25.240Z,99660.09
2022-08-05T07:49:03.505Z,99663.81
2022-08-05T07:50:53.487Z,99662.63
2022-08-05T07:53:00.986Z,99661.44
2022-08-05T07:55:16.093Z,99662.78
2022-08-05T07:57:51.284Z,99665.50
2022-08-05T07:59:57.669Z,99669.47
2022-08-05T08:02:05.945Z,99667.78
2022-08-05T08:04:37.683Z,99668.16
2022-08-05T08:06:43.737Z,99668.75
2022-08-05T08:08:48.299Z,99662.28
2022-08-05T08:10:59.500Z,99663.72
2022-08-05T08:13:06.357Z,99668.66
2022-08-05T08:15:15.804Z,99654.38
2022-08-05T08:17:19.174Z,99663.94
2022-08-05T08:20:22.308Z,99659.91
2022-08-05T08:21:47.461Z,99667.22
2022-08-05T08:24:02.215Z,99647.88
2022-08-05T08:26:07.654Z,99655.91
2022-08-05T08:28:18.319Z,99660.00
2022-08-05T08:30:40.719Z,99644.97
2022-08-05T08:32:50.674Z,99659.09
2022-08-05T08:34:59.013Z,99656.91
2022-08-05T08:37:03.326Z,99654.19
2022-08-05T08:39:14.971Z,99655.06
2022-08-05T08:41:20.372Z,99669.78
2022-08-05T08:45:16.431Z,99662.78
2022-08-05T08:45:58.783Z,99663.81
2022-08-05T08:48:10.519Z,99646.78
2022-08-05T08:50:33.018Z,99645.69
2022-08-05T08:53:02.203Z,99637.31
2022-08-05T08:55:19.623Z,99642.97
2022-08-05T08:57:58.399Z,99647.22
2022-08-05T09:00:01.452Z,99647.22
2022-08-05T09:02:08.708Z,99639.50
2022-08-05T09:04:12.234Z,99648.28
2022-08-05T09:06:21.088Z,99636.47
2022-08-05T09:08:30.114Z,99648.50
2022-08-05T09:10:32.953Z,99638.25
2022-08-05T09:12:36.454Z,99661.72
2022-08-05T09:14:58.582Z,99640.03
2022-08-05T09:17:41.326Z,99635.75
2022-08-05T09:20:01.934Z,99640.91
2022-08-05T09:22:24.961Z,99626.59
2022-08-05T09:24:39.122Z,99634.69
2022-08-05T09:26:43.707Z,99630.53
2022-08-05T09:28:48.837Z,99630.03
2022-08-05T09:32:40.811Z,99623.41
2022-08-05T09:34:07.186Z,99614.00
2022-08-05T09:39:45.521Z,99628.97
2022-08-05T09:42:04.918Z,99633.16
2022-08-05T09:44:44.012Z,99622.63
2022-08-05T09:46:51.806Z,99631.19
2022-08-05T09:49:07.368Z,99625.41
2022-08-05T09:51:40.068Z,99619.63
2022-08-05T09:53:59.168Z,99622.38
2022-08-05T09:56:28.310Z,99623.56
2022-08-05T09:58:38.200Z,99620.25
2022-08-05T10:01:13.744Z,99621.38
2022-08-05T10:03:23.482Z,99621.91
2022-08-05T10:05:46.071Z,99626.59
2022-08-05T10:08:35.080Z,99619.41
2022-08-05T10:10:54.518Z,99627.94
2022-08-05T10:13:03.152Z,99632.38
2022-08-05T10:18:22.888Z,99629.81
2022-08-05T10:20:38.884Z,99627.91
2022-08-05T10:22:50.878Z,99623.34
2022-08-05T10:25:03.844Z,99628.03
2022-08-05T10:27:12.912Z,99623.03
2022-08-05T10:30:40.969Z,99614.41
2022-08-05T10:32:54.147Z,99619.34
2022-08-05T10:34:25.863Z,99614.00
2022-08-05T10:36:48.789Z,99618.41
2022-08-05T10:39:24.380Z,99613.50
2022-08-05T10:42:02.511Z,99592.56
2022-08-05T10:44:27.430Z,99602.38
2022-08-05T10:50:33.237Z,99590.03
2022-08-05T10:52:51.693Z,99604.72
2022-08-05T10:57:39.372Z,99606.22
2022-08-05T11:05:41.492Z,99595.38
2022-08-05T11:08:33.702Z,99591.13
2022-08-05T11:14:03.353Z,99604.06
2022-08-05T11:16:33.736Z,99600.31
2022-08-05T11:20:17.376Z,99595.47
2022-08-05T11:23:01.974Z,99593.94
2022-08-05T11:26:05.273Z,99589.50
2022-08-05T11:30:59.791Z,99594.50
2022-08-05T11:33:44.053Z,99588.44
2022-08-05T11:36:07.731Z,99604.22
2022-08-05T11:38:30.134Z,99587.47
2022-08-05T11:41:34.795Z,99586.56
2022-08-05T11:44:52.946Z,99579.84
2022-08-05T11:47:09.197Z,99582.72
2022-08-05T11:49:36.620Z,99595.34
2022-08-05T11:51:55.024Z,99596.50
2022-08-05T11:54:02.115Z,99591.63
2022-08-05T11:56:05.169Z,99588.66
2022-08-05T11:58:32.076Z,99568.47
2022-08-05T12:00:44.359Z,99579.16
2022-08-05T12:02:53.593Z,99582.97
2022-08-05T12:05:06.884Z,99574.22
2022-08-05T12:08:08.457Z,99576.13
2022-08-05T12:10:38.638Z,99568.94
2022-08-05T12:12:59.191Z,99577.19
2022-08-05T12:15:04.878Z,99565.31
2022-08-05T12:18:00.573Z,99577.88
2022-08-05T12:20:27.152Z,99566.13
2022-08-05T12:22:36.479Z,99556.50
2022-08-05T12:25:14.213Z,99556.25
2022-08-05T12:30:15.709Z,99564.41
2022-08-05T12:32:52.996Z,99572.22
2022-08-05T12:37:30.025Z,99544.69
2022-08-05T12:39:44.108Z,99542.22
2022-08-05T12:42:14.427Z,99534.91
2022-08-05T12:44:37.265Z,99552.84
2022-08-05T12:47:18.613Z,99539.03
2022-08-05T12:52:32.323Z,99547.84
2022-08-05T12:55:47.273Z,99548.81
2022-08-05T12:59:08.050Z,99538.84
2022-08-05T13:02:01.084Z,99536.69
2022-08-05T13:04:54.667Z,99530.97
2022-08-05T13:07:17.283Z,99542.25
2022-08-05T13:09:28.654Z,99537.88
2022-08-05T13:12:01.255Z,99544.03
2022-08-05T13:24:36.182Z,99534.63
2022-08-05T13:27:03.741Z,99528.50
2022-08-05T13:29:06.566Z,99524.63
2022-08-05T13:31:13.943Z,99519.66
2022-08-05T13:34:22.358Z,99530.66
2022-08-05T13:39:24.541Z,99524.63
2022-08-05T13:41:37.531Z,99518.53
2022-08-05T13:43:56.425Z,99521.81
2022-08-05T13:46:14.126Z,99528.56
2022-08-05T13:55:09.667Z,99516.41
2022-08-05T14:09:08.455Z,99501.91
2022-08-05T14:12:03.908Z,99491.66
2022-08-05T14:14:08.814Z,99495.25
2022-08-05T14:20:27.595Z,99485.38
2022-08-05T14:23:11.195Z,99501.28
2022-08-05T14:29:16.705Z,99485.91
2022-08-05T14:32:13.156Z,99488.56
2022-08-05T14:40:35.532Z,99488.78
2022-08-05T15:32:55.706Z,99483.47
2022-08-05T15:35:09.784Z,99465.13
2022-08-05T16:30:01.639Z,99438.69
2022-08-05T17:00:25.958Z,99454.44
2022-08-05T17:03:19.529Z,99425.59
2022-08-05T17:12:51.928Z,99438.78
2022-08-05T17:26:51.333Z,99423.41
2022-08-05T17:36:33.568Z,99460.50
2022-08-05T17:56:33.775Z,99473.13
2022-08-05T17:58:43.719Z,99482.16
2022-08-05T18:13:26.080Z,99494.50
2022-08-05T18:16:03.458Z,99474.41
2022-08-05T18:18:30.779Z,99481.53
2022-08-05T18:20:50.378Z,99469.75
2022-08-05T18:23:40.709Z,99483.81
2022-08-05T18:26:13.365Z,99479.00
2022-08-05T18:28:21.907Z,99467.78
2022-08-05T18:30:26.209Z,99495.34
2022-08-05T18:33:00.279Z,99475.03
2022-08-05T18:35:05.281Z,99481.44
2022-08-05T18:37:12.480Z,99492.25
2022-08-05T18:39:42.423Z,99482.03
2022-08-05T18:41:59.712Z,99480.97
2022-08-05T18:44:06.259Z,99481.34
2022-08-05T18:46:09.712Z,99496.06
2022-08-05T18:48:30.264Z,99477.09
2022-08-05T18:50:45.016Z,99501.78
2022-08-05T18:52:55.957Z,99508.00
2022-08-05T18:54:59.363Z,99507.81
2022-08-05T18:57:04.117Z,99510.34
2022-08-05T18:59:42.966Z,99518.53
2022-08-05T19:01:57.046Z,99510.97
2022-08-05T19:04:12.588Z,99553.19
2022-08-05T19:06:20.089Z,99566.97
2022-08-05T19:09:11.058Z,99548.03
2022-08-05T19:11:28.628Z,99568.59
2022-08-05T19:13:40.895Z,99567.69
2022-08-05T19:15:57.870Z,99562.66
2022-08-05T19:18:10.436Z,99551.19
2022-08-05T19:20:15.713Z,99557.50
2022-08-05T19:22:27.559Z,99586.84
2022-08-05T19:24:34.720Z,99590.00
2022-08-05T19:26:54.673Z,99594.78
2022-08-05T19:28:58.163Z,99606.75
2022-08-05T19:31:04.862Z,99603.41
2022-08-05T19:33:16.902Z,99612.13
2022-08-05T19:35:56.838Z,99614.13
2022-08-05T19:38:06.711Z,99609.53
2022-08-05T19:40:15.074Z,99623.94
2022-08-05T19:42:35.391Z,99621.47
2022-08-05T19:44:44.732Z,99624.88
2022-08-05T19:46:52.230Z,99626.19
2022-08-05T19:48:54.411Z,99628.38
2022-08-05T19:51:05.613Z,99603.56
2022-08-05T19:53:10.846Z,99628.00
2022-08-05T19:56:15.061Z,99627.41
2022-08-05T19:57:57.227Z,99640.28
2022-08-05T20:00:06.584Z,99646.19
2022-08-05T20:02:19.950Z,99640.75
2022-08-05T20:04:49.551Z,99639.50
2022-08-05T20:07:47.363Z,99635.72
2022-08-05T20:10:11.773Z,99630.31
2022-08-05T20:12:39.042Z,99634.09
2022-08-05T20:15:13.579Z,99636.19
2022-08-05T20:17:24.774Z,99636.00
2022-08-05T20:19:36.427Z,99647.56
2022-08-05T20:21:54.558Z,99644.84
2022-08-05T20:24:00.258Z,99638.75
2022-08-05T20:26:32.480Z,99650.13
2022-08-05T20:32:18.488Z,99646.38
2022-08-05T20:38:08.310Z,99651.66
2022-08-05T20:40:34.724Z,99644.91
2022-08-05T20:42:47.038Z,99647.22
2022-08-05T20:44:53.022Z,99659.00
2022-08-05T20:47:07.615Z,99663.63
2022-08-05T20:49:11.396Z,99679.63
2022-08-05T20:51:15.072Z,99680.03
2022-08-05T20:53:36.531Z,99685.53
2022-08-05T20:55:56.816Z,99685.75
2022-08-05T20:58:15.878Z,99682.16
2022-08-05T21:01:04.789Z,99696.69
2022-08-05T21:03:16.808Z,99703.63
2022-08-05T21:05:24.182Z,99706.78
2022-08-05T21:07:26.324Z,99704.63
2022-08-05T21:09:53.288Z,99717.50
2022-08-05T21:12:09.457Z,99717.28
2022-08-05T21:17:05.489Z,99729.25
2022-08-05T21:21:50.903Z,99745.84
2022-08-05T21:24:26.197Z,99730.91
2022-08-05T21:26:39.514Z,99743.13
2022-08-05T21:28:55.599Z,99733.84
2022-08-05T21:31:40.881Z,99735.94
2022-08-05T21:33:47.810Z,99744.34
2022-08-05T21:35:58.968Z,99740.13
2022-08-05T21:38:10.039Z,99736.13
2022-08-05T21:40:38.159Z,99746.44
2022-08-05T21:42:59.264Z,99744.09
2022-08-05T21:45:10.797Z,99732.06
2022-08-05T21:47:17.513Z,99760.50
2022-08-05T21:54:35.538Z,99773.69
2022-08-05T22:00:01.653Z,99819.97
2022-08-05T22:02:03.087Z,99834.50
2022-08-05T22:04:07.840Z,99848.59
2022-08-05T22:06:22.327Z,99861.66
2022-08-05T22:08:29.347Z,99856.38
2022-08-05T22:10:39.235Z,99861.44
2022-08-05T22:12:50.608Z,99866.72
2022-08-05T22:14:54.094Z,99864.16
2022-08-05T22:17:04.932Z,99866.25
2022-08-05T22:19:55.929Z,99867.31
2022-08-05T22:21:33.737Z,99852.75
2022-08-05T22:24:02.402Z,99850.44
2022-08-05T22:26:09.889Z,99845.53
2022-08-05T22:30:44.197Z,99844.38
2022-08-05T22:35:47.748Z,99836.91
2022-08-05T22:37:58.753Z,99832.25
2022-08-05T22:40:07.815Z,99822.13
2022-08-05T22:42:15.286Z,99803.19
2022-08-05T22:44:25.147Z,99801.25
2022-08-05T22:46:29.274Z,99802.69
2022-08-05T22:48:34.434Z,99790.63
2022-08-05T22:50:37.712Z,99799.44
2022-08-05T22:52:51.279Z,99798.31
2022-08-05T22:54:55.076Z,99809.09
2022-08-05T22:56:57.572Z,99816.06
2022-08-05T22:59:04.086Z,99815.38
2022-08-05T23:01:24.941Z,99812.84
2022-08-05T23:03:57.609Z,99808.97
2022-08-05T23:06:01.713Z,99810.41
2022-08-05T23:08:04.972Z,99805.91
2022-08-05T23:10:08.375Z,99805.25
2022-08-05T23:12:11.272Z,99810.03
2022-08-05T23:14:22.588Z,99801.78
2022-08-05T23:16:39.052Z,99805.84
2022-08-05T23:18:46.544Z,99799.44
2022-08-05T23:20:59.943Z,99806.84
2022-08-05T23:23:05.713Z,99802.59
2022-08-05T23:25:16.917Z,99801.28
2022-08-05T23:27:22.751Z,99814.22
2022-08-05T23:29:27.410Z,99826.81
2022-08-05T23:31:37.273Z,99813.56
2022-08-05T23:34:04.794Z,99813.84
2022-08-05T23:36:02.993Z,99825.09
2022-08-05T23:38:07.202Z,99822.94
2022-08-05T23:40:15.116Z,99826.69
2022-08-05T23:42:29.173Z,99825.19
2022-08-05T23:44:32.052Z,99826.22
2022-08-05T23:46:34.770Z,99822.53
2022-08-05T23:48:39.712Z,99832.19
2022-08-05T23:50:44.652Z,99837.13
2022-08-05T23:52:53.271Z,99845.94
2022-08-05T23:55:08.847Z,99848.09
2022-08-05T23:57:11.552Z,99847.75
2022-08-05T23:59:14.071Z,99852.63
